| Name | Last modified | Size | Description | |
|---|---|---|---|---|
| Parent Directory | - | |||
| ILF-1 Hourly Reservoir Outflow Data.xlsx | 2014-11-13 09:48 | 11M | ||
| PRM88.0-87.9.zip | 2016-08-18 13:26 | 4.8M | ||
| PRM88.0SunshineCreek.zip | 2016-08-18 13:28 | 2.5M | ||
| PRM102.5-100.3.zip | 2016-08-18 13:35 | 2.5M | ||
| PRM128.1SkullCreek.zip | 2016-08-18 13:38 | 2.5M | ||
| PRM140.0-128.1.zip | 2016-08-18 13:39 | 2.5M | ||
| PRM95.4-93.3.zip | 2016-08-18 13:31 | 2.5M | ||
| PRM128.1-105.1.zip | 2016-08-18 13:37 | 2.5M | ||
| PRM63.4-54.5.zip | 2016-08-18 13:55 | 2.5M | ||
| PRM52.1-44.9.zip | 2016-08-18 13:55 | 2.5M | ||
| PRM52.1WillowCreek.zip | 2016-08-18 13:56 | 2.5M | ||
| PRM100.3TalkeetnaRiver.zip | 2016-08-18 13:39 | 2.5M | ||
| PRM54.5LittleWillowCreek.zip | 2016-08-18 13:55 | 2.5M | ||
| PRM105.1WhiskersCreek.zip | 2016-08-18 13:36 | 2.5M | ||
| PRM105.1-102.5.zip | 2016-08-18 13:36 | 2.5M | ||
| PRM87.9-87.2.zip | 2016-08-18 13:49 | 2.5M | ||
| PRM93.3-88.0.zip | 2016-08-18 13:29 | 2.5M | ||
| PRM100.3-95.4.zip | 2016-08-18 13:33 | 2.5M | ||
| PRM44.9DeshkaRiver.zip | 2016-08-18 13:53 | 2.5M | ||
| PRM160.5ChinookCreek.zip | 2016-08-18 11:29 | 2.5M | ||
| PRM87.2-81.0.zip | 2016-08-18 13:50 | 2.5M | ||
| PRM184.6TsusenaCreek.zip | 2016-08-18 13:19 | 2.5M | ||
| PRM184.0-179.3.zip | 2016-08-18 11:38 | 2.5M | ||
| PRM71.7SheepCreek.zip | 2016-08-18 13:52 | 2.5M | ||
| PRM43.3-31.4.zip | 2016-08-18 13:47 | 2.5M | ||
| PRM160.5-155.9.zip | 2016-08-18 11:28 | 2.5M | ||
| PRM140.1GoldCreek.zip | 2016-08-18 11:13 | 2.4M | ||
| PRM95.4TrapperCreek.zip | 2016-08-18 13:32 | 2.4M | ||
| PRM164.8-160.5.zip | 2016-08-18 11:31 | 2.4M | ||
| PRM184.6-184.0.zip | 2016-08-18 13:01 | 2.4M | ||
| PRM63.4-197.5MileCreek.zip | 2016-08-18 13:54 | 2.4M | ||
| PRM76.8-71.7.zip | 2016-08-18 13:52 | 2.4M | ||
| PRM76.8GooseCreek.zip | 2016-08-18 13:51 | 2.4M | ||
| PRM64.7-63.4.zip | 2016-08-18 13:54 | 2.4M | ||
| PRM152.3PortageCreek.zip | 2016-08-18 13:17 | 2.4M | ||
| PRM81.0MontanaCreek.zip | 2016-08-18 13:51 | 2.4M | ||
| PRM155.9-152.3.zip | 2016-08-18 11:22 | 2.4M | ||
| PRM71.7-67.3.zip | 2016-08-18 13:52 | 2.4M | ||
| PRM43.3RollyCreek.zip | 2016-08-18 13:48 | 2.4M | ||
| PRM31.4YentnaRiver.zip | 2015-10-19 06:30 | 2.4M | ||
| PRM81.0-76.8.zip | 2016-08-18 13:51 | 2.4M | ||
| PRM67.3CaswellCreek.zip | 2016-08-18 13:53 | 2.4M | ||
| PRM93.3BirchCreek.zip | 2016-08-18 13:30 | 2.4M | ||
| PRM31.4-29.9.zip | 2016-08-18 13:43 | 2.3M | ||
| PRM142.1IndianRiver.zip | 2016-08-18 11:17 | 2.3M | ||
| PRM155.9CheechakoCreek.zip | 2016-08-18 11:25 | 2.3M | ||
| PRM179.3FogCreek.zip | 2016-08-18 11:34 | 2.3M | ||
| PRM187.2-184.6.zip | 2016-08-18 13:20 | 2.3M | ||
| PRM64.7KashwitnaRiver.zip | 2016-08-18 13:54 | 2.3M | ||
| PRM44.9-43.3.zip | 2016-08-18 13:52 | 2.3M | ||
| PRM67.3-64.7.zip | 2016-08-18 13:53 | 2.3M | ||
| PRM87.2RabideuxCreek.zip | 2016-08-18 13:50 | 2.3M | ||
| PRM54.5-52.1.zip | 2016-08-18 13:55 | 2.3M | ||
| PRM142.1-140.1.zip | 2016-08-18 11:14 | 2.3M | ||
| Susitna Flows at Dam Site (PRM187.2).zip | 2015-09-03 09:49 | 2.3M | ||
| PRM140.1-140.0.zip | 2016-08-18 11:10 | 2.3M | ||
| PRM184.0UnnamedTrib.zip | 2016-08-18 13:00 | 2.3M | ||
| PRM164.8DevilCreek.zip | 2016-08-18 11:32 | 2.3M | ||
| PRM152.3-142.1.zip | 2016-08-18 11:19 | 2.2M | ||
| PRM179.3-164.8.zip | 2016-08-18 11:33 | 2.2M | ||
| PRM102.5ChulitnaRiver.zip | 2016-08-18 13:22 | 2.2M | ||
| 8_5_TributaryHydrology_README_20170630.docx | 2017-06-16 09:25 | 763K | ||
| ILF-1 Daily Reservoir Elevation Data.xlsx | 2014-11-13 09:46 | 383K | ||